Veuillez saisir l'adresse e-mail associée à votre compte d'utilisateur. Votre identifiant vous sera envoyé à cette adresse.

METAR TAF

[Source: ADDS]
METAR
LFCR 190930Z AUTO VRB02KT CAVOK 05/00 Q1005 NOSIG =
LFCR 190500Z 1906/2006 10010KT CAVOK BECMG 1916/1918 BKN025 PROB30 TEMPO 1918/2006 30005KT -RA BKN009 LFBA 190930Z AUTO VRB02KT CAVOK 06/04 Q1006 NOSIG =
LFBA 190800Z 1909/1918 VRB02KT CAVOK LFSL 190930Z AUTO VRB01KT CAVOK 06/00 Q1005 NOSIG =
LFSL 190800Z 1909/1918 VRB02KT CAVOK BECMG 1916/1918 02006KT LFLW 190930Z AUTO 12002KT CAVOK 06/M01 Q1004 NOSIG =
LFLW 190800Z 1909/1918 VRB03KT CAVOK BECMG 1913/1915 SCT055 BECMG 1916/1918 11008KT
TAF
LFCR 190500Z 1906/2006 10010KT CAVOK BECMG 1916/1918 BKN025 PROB30 TEMPO 1918/2006 30005KT -RA BKN009 =
LFBA 190800Z 1909/1918 VRB02KT CAVOK =
LFSL 190800Z 1909/1918 VRB02KT CAVOK BECMG 1916/1918 02006KT =
LFLW 190800Z 1909/1918 VRB03KT CAVOK BECMG 1913/1915 SCT055 BECMG 1916/1918 11008KT =
SR / SS: 06:55 / 16:23 UTC (LFCC 2018-11-19)